• Join FlightAware (Why Join?)
  • Login
  • US Flag 
09:25PM EDT


 

Airport Tracker/Info


-or-


 

Live Flight TrackerFlight Track Log ✈ AAY834 ✈ 04-May-2012 ✈ KPIE - KGSO

Flight Track Log - Related Links

Times and Time Zones

All times are in EDT time to prevent confusion due to time zone crossing. See the AAY834 flight status page for this flight to view local times or setup timezone preferences in your user account.

Time Position Orientation Groundspeed Altitude Reporting Facility
EDT Latitude Longitude Course Direction KTS MPH feet Rate Location/Type
02:56PM 27.9333 -82.7000 30° Northeast 170 196 900  Level Tampa TRACON
02:57PM 27.9833 -82.6667 12° North 200 230 3,500 2,100 Climbing Tampa TRACON
02:58PM 28.0975 -82.6383 17° North 240 276 6,900 1,920 Climbing Jacksonville Center
02:59PM 28.1725 -82.6125 16° North 262 302 9,000 2,100 Climbing Jacksonville Center
03:00PM 28.2561 -82.5861 14° North 283 326 11,100 1,740 Climbing Jacksonville Center
03:01PM 28.3497 -82.5600 15° North 313 360 12,500 1,740 Climbing Jacksonville Center
03:02PM 28.4583 -82.5267 15° North 360 414 14,600 2,160 Climbing Jacksonville Center
03:03PM 28.5689 -82.4931 353° North 392 451 16,900 2,100 Climbing Jacksonville Center
03:04PM 28.6856 -82.5092 350° North 415 478 18,800 1,920 Climbing Jacksonville Center
03:05PM 28.7881 -82.5300 349° North 408 470 20,800 1,860 Climbing Jacksonville Center
03:06PM 28.9050 -82.5558 349° North 414 476 22,600 1,860 Climbing Jacksonville Center
03:07PM 29.0239 -82.5814 348° North 419 482 24,600 1,800 Climbing Jacksonville Center
03:08PM 29.1408 -82.6097 350° North 424 488 26,300 1,740 Climbing Jacksonville Center
03:09PM 29.2558 -82.6331 350° North 424 488 28,100 1,620 Climbing Jacksonville Center
03:10PM 29.3706 -82.6567 349° North 424 488 29,600 1,500 Climbing Jacksonville Center
03:11PM 29.4814 -82.6803 349° North 413 475 31,200 1,200 Climbing Jacksonville Center
03:12PM 29.5919 -82.7039 349° North 408 470 32,000 780 Climbing Jacksonville Center
03:13PM 29.7047 -82.7300 350° North 408 470 32,800 480 Climbing Jacksonville Center
03:14PM 29.8197 -82.7536 349° North 413 475 33,000 60 Climbing Jacksonville Center
03:15PM 29.9303 -82.7775 350° North 408 470 33,000 -60 Level Jacksonville Center
03:16PM 30.0619 -82.8039 357° North 424 488 32,900  Descending Jacksonville Center
03:17PM 30.1747 -82.8108 22° Northeast 425 489 33,000  Climbing Jacksonville Center
03:18PM 30.2853 -82.7603 22° Northeast 407 468 32,900  Descending Jacksonville Center
03:19PM 30.3958 -82.7072 23° Northeast 412 474 33,000  Climbing Jacksonville Center
03:20PM 30.5044 -82.6539 21° North 422 486 32,900 -60 Descending Jacksonville Center
03:21PM 30.6022 -82.6103 22° Northeast 422 486 32,900  Level Jacksonville Center
03:22PM 30.7067 -82.5617 20° North 422 486 33,000  Climbing Jacksonville Center
03:23PM 30.8214 -82.5128 22° Northeast 416 479 33,000  Level Jacksonville Center
03:24PM 30.9297 -82.4614 22° Northeast 416 479 33,000 -60 Level Jacksonville Center
03:25PM 31.0381 -82.4100 22° Northeast 416 479 32,900 -60 Descending Jacksonville Center
03:26PM 31.1569 -82.3536 21° North 416 479 32,900  Level Jacksonville Center
03:27PM 31.2675 -82.3044 23° Northeast 416 479 33,000  Climbing Jacksonville Center
03:28PM 31.3778 -82.2500 21° North 416 479 32,900 -60 Descending Jacksonville Center
03:29PM 31.4881 -82.2006 22° Northeast 411 473 32,900  Level Jacksonville Center
03:30PM 31.5986 -82.1486 22° Northeast 418 481 33,000  Climbing Jacksonville Center
03:31PM 31.7067 -82.0964 21° North 413 475 33,000  Level Jacksonville Center
03:32PM 31.8047 -82.0517 23° Northeast 413 475 33,000  Level Jacksonville Center
03:33PM 31.9275 -81.9917 22° Northeast 413 475 33,000  Level Jacksonville Center
03:34PM 32.0356 -81.9392 22° Northeast 421 484 33,000  Level Jacksonville Center
03:35PM 32.1356 -81.8917 21° North 421 484 33,000  Level Jacksonville Center
03:36PM 32.2581 -81.8361 22° Northeast 427 491 33,000  Level Jacksonville Center
03:37PM 32.3600 -81.7883 22° Northeast 432 497 33,000  Level Jacksonville Center
03:38PM 32.4806 -81.7303 22° Northeast 432 497 33,000  Level Jacksonville Center
03:39PM 32.5908 -81.6769 22° Northeast 434 499 33,000  Level Jacksonville Center
03:40PM 32.7050 -81.6211 21° North 429 494 33,000  Level Jacksonville Center
03:41PM 32.8172 -81.5700 27° Northeast 429 494 33,000 -60 Level Jacksonville Center
03:42PM 32.9231 -81.5067 32° Northeast 429 494 32,900 -60 Descending Jacksonville Center
03:43PM 33.0264 -81.4308 33° Northeast 429 494 32,900  Level Jacksonville Center
03:44PM 33.1300 -81.3497 33° Northeast 429 494 32,900  Level Jacksonville Center
03:45PM 33.2333 -81.2708 33° Northeast 434 499 32,900  Level Jacksonville Center
03:46PM 33.3367 -81.1919 32° Northeast 434 499 32,900  Level Jacksonville Center
03:47PM 33.4419 -81.1128 33° Northeast 434 499 32,900  Level Jacksonville Center
03:48PM 33.5431 -81.0336 33° Northeast 434 499 32,900  Level Jacksonville Center
03:49PM 33.6461 -80.9539 33° Northeast 434 499 33,000  Climbing Jacksonville Center
03:50PM 33.7492 -80.8719 31° Northeast 434 499 32,900  Descending Jacksonville Center
03:51PM 33.8544 -80.7944 33° Northeast 434 499 33,000 -60 Climbing Jacksonville Center
03:52PM 33.9617 -80.7117 33° Northeast 434 499 32,800 -720 Descending Jacksonville Center
03:53PM 34.0622 -80.6314 33° Northeast 434 499 31,600 -1,200 Descending Jacksonville Center
03:54PM 34.1672 -80.5486 33° Northeast 439 505 30,400 -1,680 Descending Jacksonville Center
03:55PM 34.2742 -80.4653 33° Northeast 439 505 28,300 -2,340 Descending Jacksonville Center
03:56PM 34.3789 -80.3817 33° Northeast 446 513 25,800 -2,040 Descending Jacksonville Center
03:58PM 34.5550 -80.2419 32° Northeast 427 491 22,700 -1,680 Descending Washington Center
03:59PM 34.6517 -80.1692 35° Northeast 420 483 21,200 -900 Descending Washington Center
04:00PM 34.7422 -80.0933 36° Northeast 405 466 21,000 -120 Descending Washington Center
04:01PM 34.8219 -80.0219 41° Northeast 391 450 21,000  Level Washington Center
04:02PM 34.9047 -79.9328 42° Northeast 391 450 21,000  Level Washington Center
04:03PM 34.9872 -79.8408 42° Northeast 391 450 21,000 -300 Level Washington Center
04:04PM 35.0697 -79.7514 42° Northeast 391 450 20,500 -1,320 Descending Washington Center
04:05PM 35.1608 -79.6519 28° Northeast 391 450 18,400 -1,980 Descending Washington Center
04:06PM 35.2547 -79.5906 339° North 386 444 16,500 -1,920 Descending Washington Center
04:14PM 35.9811 -79.9316 357° North  Level FlightAware Approximate
04:15PM 36.0857 -79.9381 351° North  Level FlightAware Approximate
04:16PM 36.1918 -79.9586 167° South  Level Estimated
04:17PM 36.1000 -79.9333 282° West  Level FlightAware Approximate
04:18PM 36.1230 -80.0689 282° West  Level Estimated